Time;durP1;ratioP1;P1;durP2;ratioP2;P2;SDS_P1;SDS_P2;PMS_P1;PMS_P2;Temp;Humidity;BMP_temperature;BMP_pressure;BME280_temperature;BME280_humidity;BME280_pressure;Samples;Min_cycle;Max_cycle;Signal;HPM_P1;HPM_P2
2021/05/24 00:01:42;;;;;;;1.25;0.50;;;;;;;-142.37;100.00;59669.53;5035360;28;20029;-68
2021/05/24 00:04:07;;;;;;;1.30;0.50;;;;;;;-142.37;100.00;59669.53;5035520;28;20453;-67
2021/05/24 00:06:33;;;;;;;0.77;0.30;;;;;;;-142.37;100.00;59669.53;5035288;28;20418;-68
2021/05/24 00:08:58;;;;;;;1.88;0.30;;;;;;;-142.37;100.00;59669.53;5035599;28;20147;-66
2021/05/24 00:11:23;;;;;;;1.50;0.60;;;;;;;-142.37;100.00;59669.53;5035455;28;20030;-68
2021/05/24 00:13:54;;;;;;;1.33;0.38;;;;;;;-142.37;100.00;59669.53;5035265;28;20373;-68
2021/05/24 00:16:20;;;;;;;0.63;0.30;;;;;;;-142.37;100.00;59669.53;5035258;28;20025;-68
2021/05/24 00:18:50;;;;;;;1.25;0.30;;;;;;;-142.37;100.00;59669.53;5035209;28;20032;-68
2021/05/24 00:21:15;;;;;;;0.50;0.30;;;;;;;-142.37;100.00;59669.53;5035139;28;20436;-66
2021/05/24 00:23:41;;;;;;;0.55;0.20;;;;;;;-142.37;100.00;59669.53;5035000;28;20084;-66
2021/05/24 00:26:06;;;;;;;1.02;0.40;;;;;;;-142.37;100.00;59669.53;5052197;28;20017;-67
2021/05/24 00:28:31;;;;;;;0.55;0.20;;;;;;;-142.37;100.00;59669.53;5054887;28;20036;-68
2021/05/24 00:30:56;;;;;;;0.52;0.40;;;;;;;-142.37;100.00;59669.53;5055290;28;20074;-67
2021/05/24 00:33:22;;;;;;;1.17;0.32;;;;;;;-142.37;100.00;59669.53;5053669;28;20021;-67
2021/05/24 00:35:47;;;;;;;0.70;0.30;;;;;;;-142.37;100.00;59669.53;5054749;28;20108;-68
2021/05/24 00:38:13;;;;;;;1.38;0.35;;;;;;;-142.37;100.00;59669.53;5055085;28;20033;-66
2021/05/24 00:40:39;;;;;;;0.90;0.40;;;;;;;-142.37;100.00;59669.53;5054722;28;20021;-68
2021/05/24 00:43:06;;;;;;;1.85;0.50;;;;;;;-142.37;100.00;59669.53;5054888;28;20400;-68
2021/05/24 00:45:32;;;;;;;0.77;0.13;;;;;;;-142.37;100.00;59669.53;5053327;28;20063;-67
2021/05/24 00:47:57;;;;;;;0.38;0.17;;;;;;;-142.37;100.00;59669.53;5054731;28;20057;-68
2021/05/24 00:50:23;;;;;;;1.10;0.40;;;;;;;-142.37;100.00;59669.53;5054534;28;20516;-66
2021/05/24 00:52:49;;;;;;;1.40;0.40;;;;;;;-142.37;100.00;59669.53;5054432;28;20037;-68
2021/05/24 00:55:14;;;;;;;1.23;0.25;;;;;;;-142.37;100.00;59669.53;5054650;28;20020;-67
2021/05/24 00:57:42;;;;;;;1.80;0.25;;;;;;;-142.37;100.00;59669.53;5053015;28;20025;-67
2021/05/24 01:00:14;;;;;;;1.15;0.55;;;;;;;-142.37;100.00;59669.53;5054766;28;20048;-67
2021/05/24 01:02:39;;;;;;;0.28;0.28;;;;;;;-142.37;100.00;59669.53;5054253;28;20025;-66
2021/05/24 01:05:06;;;;;;;0.85;0.25;;;;;;;-142.37;100.00;59669.53;5054258;28;20032;-68
2021/05/24 01:07:31;;;;;;;0.88;0.22;;;;;;;-142.37;100.00;59669.53;5054074;28;20066;-67
2021/05/24 01:09:57;;;;;;;1.15;0.52;;;;;;;-142.37;100.00;59669.53;5054267;28;20021;-66
2021/05/24 01:12:22;;;;;;;0.65;0.20;;;;;;;-142.37;100.00;59669.53;5054201;28;20361;-66
2021/05/24 01:14:47;;;;;;;0.30;0.20;;;;;;;-142.37;100.00;59669.53;5054424;28;20479;-67
2021/05/24 01:17:13;;;;;;;1.38;0.35;;;;;;;-142.37;100.00;59669.53;5052863;28;20473;-68
2021/05/24 01:19:46;;;;;;;0.93;0.30;;;;;;;-142.37;100.00;59669.53;5053887;28;20059;-67
2021/05/24 01:22:17;;;;;;;1.80;0.30;;;;;;;-142.37;100.00;59669.53;5053929;28;20090;-68
2021/05/24 01:24:42;;;;;;;0.95;0.30;;;;;;;-142.37;100.00;59669.53;5053669;28;20084;-68
2021/05/24 01:27:08;;;;;;;0.38;0.22;;;;;;;-142.37;100.00;59669.53;5053985;28;20029;-67
2021/05/24 01:29:34;;;;;;;1.02;0.50;;;;;;;-142.37;100.00;59669.53;5053762;28;20024;-66
2021/05/24 01:31:59;;;;;;;0.85;0.20;;;;;;;-142.37;100.00;59669.53;5053845;28;20044;-67
2021/05/24 01:34:24;;;;;;;0.50;0.20;;;;;;;-142.37;100.00;59669.53;5053706;28;20035;-67
2021/05/24 01:36:50;;;;;;;1.17;0.28;;;;;;;-142.37;100.00;59669.53;5053904;28;20108;-67
2021/05/24 01:39:19;;;;;;;1.42;0.60;;;;;;;-142.37;100.00;59669.53;5053808;28;20060;-67
2021/05/24 01:41:44;;;;;;;1.42;0.32;;;;;;;-142.37;100.00;59669.53;5053498;28;20403;-68
2021/05/24 01:44:10;;;;;;;1.15;0.20;;;;;;;-142.37;100.00;59669.53;5053466;28;20021;-67
2021/05/24 01:46:35;;;;;;;1.17;0.30;;;;;;;-142.37;100.00;59669.53;5053430;28;20039;-67
2021/05/24 01:49:00;;;;;;;1.60;0.47;;;;;;;-142.37;100.00;59669.53;5053528;28;20029;-66
2021/05/24 01:51:25;;;;;;;1.33;0.30;;;;;;;-142.37;100.00;59669.53;5053396;28;20021;-68
2021/05/24 01:53:51;;;;;;;0.63;0.28;;;;;;;-142.37;100.00;59669.53;5053584;28;20352;-67
2021/05/24 01:56:16;;;;;;;0.60;0.30;;;;;;;-142.37;100.00;59669.53;5053016;28;20036;-68
2021/05/24 01:58:41;;;;;;;0.20;0.10;;;;;;;-142.37;100.00;59669.53;5053155;28;20381;-68
2021/05/24 02:01:10;;;;;;;1.65;0.40;;;;;;;-142.37;100.00;59669.53;5053251;28;20371;-67
2021/05/24 02:03:36;;;;;;;0.55;0.22;;;;;;;-142.37;100.00;59669.53;5047193;28;20100;-67
2021/05/24 02:06:03;;;;;;;0.57;0.20;;;;;;;-142.37;100.00;59669.53;5033307;28;20060;-67
2021/05/24 02:08:30;;;;;;;2.55;0.52;;;;;;;-142.37;100.00;59669.53;5033122;28;20419;-67
2021/05/24 02:10:56;;;;;;;1.05;0.30;;;;;;;-142.37;100.00;59669.53;5033209;28;20400;-67
2021/05/24 02:13:21;;;;;;;0.32;0.20;;;;;;;-142.37;100.00;59669.53;5033204;28;20029;-68
2021/05/24 02:15:47;;;;;;;1.80;0.30;;;;;;;-142.37;100.00;59669.53;5033002;28;20108;-66
2021/05/24 02:18:12;;;;;;;1.27;0.20;;;;;;;-142.37;100.00;59669.53;5033299;28;20024;-69
2021/05/24 02:20:37;;;;;;;0.45;0.20;;;;;;;-142.37;100.00;59669.53;5032932;28;20033;-69
2021/05/24 02:23:05;;;;;;;1.42;0.43;;;;;;;-142.37;100.00;59669.53;5032866;28;20447;-67
2021/05/24 02:25:31;;;;;;;0.30;0.10;;;;;;;-142.37;100.00;59669.53;5045249;28;20017;-68
2021/05/24 02:27:57;;;;;;;0.77;0.28;;;;;;;-142.37;100.00;59669.53;5052859;28;20057;-68
2021/05/24 02:30:23;;;;;;;0.73;0.28;;;;;;;-142.37;100.00;59669.53;5052747;28;20484;-68
2021/05/24 02:32:49;;;;;;;2.25;0.30;;;;;;;-142.37;100.00;59669.53;5052682;28;20057;-69
2021/05/24 02:35:18;;;;;;;1.38;0.63;;;;;;;-142.37;100.00;59669.53;5051535;28;20052;-68
2021/05/24 02:37:45;;;;;;;2.13;0.35;;;;;;;-142.37;100.00;59669.53;5052518;28;20028;-67
2021/05/24 02:40:13;;;;;;;1.70;0.22;;;;;;;-142.37;100.00;59669.53;5052548;28;20491;-67
2021/05/24 02:42:39;;;;;;;0.73;0.35;;;;;;;-142.37;100.00;59669.53;5052773;28;20392;-68
2021/05/24 02:45:07;;;;;;;1.23;0.30;;;;;;;-142.37;100.00;59669.53;5052554;28;20032;-68
2021/05/24 02:47:32;;;;;;;1.73;0.28;;;;;;;-142.37;100.00;59669.53;5052325;28;20036;-66
2021/05/24 02:49:58;;;;;;;1.55;0.20;;;;;;;-142.37;100.00;59669.53;5052463;28;20067;-68
2021/05/24 02:52:23;;;;;;;1.45;0.20;;;;;;;-142.37;100.00;59669.53;5052405;28;20476;-68
2021/05/24 02:54:48;;;;;;;1.98;0.17;;;;;;;-142.37;100.00;59669.53;5052421;28;20027;-69
2021/05/24 02:57:14;;;;;;;2.00;0.50;;;;;;;-142.37;100.00;59669.53;5052546;28;20457;-68
2021/05/24 02:59:39;;;;;;;0.52;0.20;;;;;;;-142.37;100.00;59669.53;5052542;28;20028;-68
2021/05/24 03:02:06;;;;;;;1.20;0.30;;;;;;;-142.37;100.00;59669.53;5052433;28;20487;-68
2021/05/24 03:04:32;;;;;;;0.65;0.25;;;;;;;-142.37;100.00;59669.53;5050825;28;20032;-68
2021/05/24 03:06:58;;;;;;;1.05;0.20;;;;;;;-142.37;100.00;59669.53;5052423;28;20024;-68
2021/05/24 03:09:23;;;;;;;1.85;0.28;;;;;;;-142.37;100.00;59669.53;5054916;28;20025;-67
2021/05/24 03:11:48;;;;;;;0.82;0.20;;;;;;;-142.37;100.00;59669.53;5056411;28;20017;-68
2021/05/24 03:14:14;;;;;;;0.57;0.20;;;;;;;-142.37;100.00;59669.53;5056453;28;20349;-67
2021/05/24 03:16:39;;;;;;;0.38;0.10;;;;;;;-142.37;100.00;59669.53;5056116;28;20115;-68
2021/05/24 03:19:05;;;;;;;2.05;0.20;;;;;;;-142.37;100.00;59669.53;5056352;28;20036;-67
2021/05/24 03:21:30;;;;;;;1.33;0.30;;;;;;;-142.37;100.00;59669.53;5055929;28;20428;-68
2021/05/24 03:23:56;;;;;;;0.68;0.20;;;;;;;-142.37;100.00;59669.53;5056176;28;20040;-67
2021/05/24 03:26:21;;;;;;;0.63;0.28;;;;;;;-142.37;100.00;59669.53;5036644;28;20021;-67
2021/05/24 03:28:46;;;;;;;1.52;0.10;;;;;;;-142.37;100.00;59669.53;5036032;28;20027;-67
2021/05/24 03:31:12;;;;;;;2.13;0.38;;;;;;;-142.37;100.00;59669.53;5036312;28;20021;-66
2021/05/24 03:33:38;;;;;;;1.98;0.30;;;;;;;-142.37;100.00;59669.53;5036044;28;20033;-68
2021/05/24 03:36:05;;;;;;;0.80;0.30;;;;;;;-142.37;100.00;59669.53;5036150;28;20060;-67
2021/05/24 03:38:30;;;;;;;1.15;0.40;;;;;;;-142.37;100.00;59669.53;5035823;28;20076;-67
2021/05/24 03:40:56;;;;;;;0.57;0.32;;;;;;;-142.37;100.00;59669.53;5036039;28;20030;-67
2021/05/24 03:43:22;;;;;;;2.28;0.40;;;;;;;-142.37;100.00;59669.53;5035988;28;20100;-67
2021/05/24 03:45:47;;;;;;;0.45;0.20;;;;;;;-142.37;100.00;59669.53;5035718;28;20108;-66
2021/05/24 03:48:13;;;;;;;0.98;0.10;;;;;;;-142.37;100.00;59669.53;5035809;28;20109;-66
2021/05/24 03:50:38;;;;;;;1.48;0.17;;;;;;;-142.37;100.00;59669.53;5035724;28;20101;-67
2021/05/24 03:53:03;;;;;;;1.33;0.20;;;;;;;-142.37;100.00;59669.53;5035831;28;20444;-66
2021/05/24 03:55:29;;;;;;;0.57;0.20;;;;;;;-142.37;100.00;59669.53;5035621;28;20017;-67
2021/05/24 03:57:54;;;;;;;0.95;0.30;;;;;;;-142.37;100.00;59669.53;5035726;28;20049;-67
2021/05/24 04:00:21;;;;;;;0.47;0.20;;;;;;;-142.37;100.00;59669.53;5035564;28;20025;-66
2021/05/24 04:02:47;;;;;;;1.40;0.20;;;;;;;-142.37;100.00;59669.53;5035503;28;20488;-67
2021/05/24 04:05:30;;;;;;;1.00;0.20;;;;;;;-142.37;100.00;59669.53;5034289;28;20160;-68
2021/05/24 04:07:57;;;;;;;0.67;0.10;;;;;;;-142.37;100.00;59669.53;5035623;28;20422;-68
2021/05/24 04:10:31;;;;;;;1.05;0.35;;;;;;;-142.37;100.00;59669.53;5035212;28;20091;-67
2021/05/24 04:12:56;;;;;;;0.43;0.10;;;;;;;-142.37;100.00;59669.53;5035456;28;20072;-68
2021/05/24 04:15:22;;;;;;;0.68;0.30;;;;;;;-142.37;100.00;59669.53;5035424;28;20104;-67
2021/05/24 04:17:49;;;;;;;0.77;0.20;;;;;;;-142.37;100.00;59669.53;5033920;28;20468;-67
2021/05/24 04:20:15;;;;;;;1.42;0.20;;;;;;;-142.37;100.00;59669.53;5035137;28;20028;-67
2021/05/24 04:22:40;;;;;;;0.73;0.32;;;;;;;-142.37;100.00;59669.53;5034929;28;20038;-68
2021/05/24 04:25:08;;;;;;;1.45;0.25;;;;;;;-142.37;100.00;59669.53;5044017;28;20035;-67
2021/05/24 04:27:33;;;;;;;1.27;0.20;;;;;;;-142.37;100.00;59669.53;5054943;28;20540;-67
2021/05/24 04:29:59;;;;;;;0.10;0.10;;;;;;;-142.37;100.00;59669.53;5055083;28;20112;-67
2021/05/24 04:32:24;;;;;;;2.88;0.70;;;;;;;-142.37;100.00;59669.53;5054854;28;20048;-69
2021/05/24 04:34:50;;;;;;;1.75;0.40;;;;;;;-142.37;100.00;59669.53;5054856;28;20095;-67
2021/05/24 04:37:15;;;;;;;2.28;0.35;;;;;;;-142.37;100.00;59669.53;5054993;28;20116;-68
2021/05/24 04:39:43;;;;;;;1.75;0.20;;;;;;;-142.37;100.00;59669.53;5053442;28;20492;-66
2021/05/24 04:42:10;;;;;;;0.77;0.20;;;;;;;-142.37;100.00;59669.53;5054808;28;20468;-69
2021/05/24 04:44:35;;;;;;;0.65;0.13;;;;;;;-142.37;100.00;59669.53;5054739;28;20412;-68
2021/05/24 04:47:00;;;;;;;1.38;0.50;;;;;;;-142.37;100.00;59669.53;5054726;28;20025;-69
2021/05/24 04:49:26;;;;;;;0.28;0.10;;;;;;;-142.37;100.00;59669.53;5054620;28;20352;-69
2021/05/24 04:51:51;;;;;;;0.38;0.03;;;;;;;-142.37;100.00;59669.53;5054622;28;20025;-68
2021/05/24 04:54:17;;;;;;;0.93;0.20;;;;;;;-142.37;100.00;59669.53;5054543;28;20037;-68
2021/05/24 04:56:42;;;;;;;0.80;0.30;;;;;;;-142.37;100.00;59669.53;5053295;28;20052;-69
2021/05/24 04:59:07;;;;;;;0.20;0.10;;;;;;;-142.37;100.00;59669.53;5053268;28;20016;-69
2021/05/24 05:01:33;;;;;;;1.70;0.57;;;;;;;-142.37;100.00;59669.53;5051705;28;20028;-67
2021/05/24 05:03:58;;;;;;;0.90;0.10;;;;;;;-142.37;100.00;59669.53;5054230;28;20028;-70
2021/05/24 05:06:23;;;;;;;1.15;0.20;;;;;;;-142.37;100.00;59669.53;5053779;28;20484;-69
2021/05/24 05:08:48;;;;;;;0.88;0.20;;;;;;;-142.37;100.00;59669.53;5052907;28;20174;-67
2021/05/24 05:11:14;;;;;;;1.10;0.20;;;;;;;-142.37;100.00;59669.53;5053392;28;20025;-69
2021/05/24 05:13:41;;;;;;;0.75;0.20;;;;;;;-142.37;100.00;59669.53;5053013;28;20468;-68
2021/05/24 05:16:06;;;;;;;1.10;0.25;;;;;;;-142.37;100.00;59669.53;5054356;28;20353;-67
2021/05/24 05:18:33;;;;;;;0.73;0.20;;;;;;;-142.37;100.00;59669.53;5052695;28;20048;-68
2021/05/24 05:20:58;;;;;;;0.68;0.17;;;;;;;-142.37;100.00;59669.53;5053030;28;20384;-67
2021/05/24 05:23:23;;;;;;;1.25;0.20;;;;;;;-142.37;100.00;59669.53;5052419;28;20033;-67
2021/05/24 05:25:49;;;;;;;0.60;0.10;;;;;;;-142.37;100.00;59669.53;5052740;28;20029;-69
2021/05/24 05:28:15;;;;;;;0.50;0.08;;;;;;;-142.37;100.00;59669.53;5053924;28;20028;-69
2021/05/24 05:30:41;;;;;;;0.55;0.10;;;;;;;-142.37;100.00;59669.53;5053246;28;20021;-64
2021/05/24 05:33:06;;;;;;;1.35;0.20;;;;;;;-142.37;100.00;59669.53;5051026;28;20027;-69
2021/05/24 05:35:33;;;;;;;0.40;0.17;;;;;;;-142.37;100.00;59669.53;5051825;28;20021;-68
2021/05/24 05:37:58;;;;;;;0.55;0.20;;;;;;;-142.37;100.00;59669.53;5051509;28;20033;-71
2021/05/24 05:40:24;;;;;;;1.85;0.30;;;;;;;-142.37;100.00;59669.53;5051522;28;20048;-69
2021/05/24 05:42:49;;;;;;;1.92;0.20;;;;;;;-142.37;100.00;59669.53;5048559;28;20467;-68
2021/05/24 05:45:16;;;;;;;0.85;0.10;;;;;;;-142.37;100.00;59669.53;5052845;28;20477;-69
2021/05/24 05:47:43;;;;;;;0.25;0.20;;;;;;;-142.37;100.00;59669.53;5040727;28;20087;-68
2021/05/24 05:50:09;;;;;;;1.20;0.20;;;;;;;-142.37;100.00;59669.53;5047648;28;20044;-67
2021/05/24 05:52:35;;;;;;;1.10;0.15;;;;;;;-142.37;100.00;59669.53;5051071;28;20029;-67
2021/05/24 05:55:06;;;;;;;0.75;0.20;;;;;;;-142.37;100.00;59669.53;5050043;28;20024;-67
2021/05/24 05:57:31;;;;;;;0.28;0.10;;;;;;;-142.37;100.00;59669.53;5048872;28;20486;-67
2021/05/24 05:59:56;;;;;;;0.35;0.05;;;;;;;-142.37;100.00;59669.53;5049962;28;20097;-69
2021/05/24 06:02:22;;;;;;;0.47;0.10;;;;;;;-142.37;100.00;59669.53;5047231;28;20032;-67
2021/05/24 06:04:47;;;;;;;1.05;0.30;;;;;;;-142.37;100.00;59669.53;5047722;28;20637;-68
2021/05/24 06:07:12;;;;;;;0.93;0.30;;;;;;;-142.37;100.00;59669.53;5049455;28;20032;-68
2021/05/24 06:09:38;;;;;;;2.50;0.90;;;;;;;-142.37;100.00;59669.53;5046959;28;20046;-69
2021/05/24 06:12:03;;;;;;;1.95;0.95;;;;;;;-142.37;100.00;59669.53;5050491;28;20024;-69
2021/05/24 06:14:29;;;;;;;2.42;1.55;;;;;;;-142.37;100.00;59669.53;5050291;28;20029;-70
2021/05/24 06:16:54;;;;;;;1.38;1.05;;;;;;;-142.37;100.00;59669.53;5046987;28;20025;-68
2021/05/24 06:19:19;;;;;;;1.92;1.42;;;;;;;-142.37;100.00;59669.53;5049452;28;20074;-68
2021/05/24 06:21:44;;;;;;;2.20;1.60;;;;;;;-142.37;100.00;59669.53;5037686;28;20041;-70
2021/05/24 06:24:10;;;;;;;3.47;1.55;;;;;;;-142.37;100.00;59669.53;5038851;28;20064;-69
2021/05/24 06:26:37;;;;;;;3.53;1.65;;;;;;;-142.37;100.00;59669.53;5046374;28;20029;-70
2021/05/24 06:29:03;;;;;;;2.60;1.85;;;;;;;-142.37;100.00;59669.53;5043222;28;20100;-71
2021/05/24 06:31:28;;;;;;;2.22;1.80;;;;;;;-142.37;100.00;59669.53;5043553;28;20021;-70
2021/05/24 06:33:54;;;;;;;2.15;1.80;;;;;;;-142.37;100.00;59669.53;5038324;28;20040;-70
2021/05/24 06:36:19;;;;;;;2.60;2.08;;;;;;;-142.37;100.00;59669.53;5047294;28;20381;-69
2021/05/24 06:38:45;;;;;;;2.63;1.80;;;;;;;-142.37;100.00;59669.53;5033606;28;20591;-70
2021/05/24 06:41:10;;;;;;;2.28;1.80;;;;;;;-142.37;100.00;59669.53;5035256;28;20029;-70
2021/05/24 06:43:35;;;;;;;2.67;1.80;;;;;;;-142.37;100.00;59669.53;5046253;28;20094;-70
2021/05/24 06:46:00;;;;;;;3.63;1.90;;;;;;;-142.37;100.00;59669.53;5037109;28;20029;-70
2021/05/24 06:48:26;;;;;;;2.92;2.17;;;;;;;-142.37;100.00;59669.53;5041593;28;20375;-71
2021/05/24 06:50:52;;;;;;;2.00;1.80;;;;;;;-142.37;100.00;59669.53;5039761;28;20539;-71
2021/05/24 06:53:17;;;;;;;2.13;1.38;;;;;;;-142.37;100.00;59669.53;5038903;28;20033;-71
2021/05/24 06:55:42;;;;;;;2.45;2.00;;;;;;;-142.37;100.00;59669.53;5038175;28;20083;-69
2021/05/24 06:58:08;;;;;;;2.20;1.98;;;;;;;-142.37;100.00;59669.53;5032861;28;20571;-71
2021/05/24 07:00:33;;;;;;;1.73;1.60;;;;;;;-142.37;100.00;59669.53;5039575;28;20056;-70
2021/05/24 07:03:01;;;;;;;1.50;1.33;;;;;;;-142.37;100.00;59669.53;5042079;28;20091;-71
2021/05/24 07:05:26;;;;;;;1.83;1.63;;;;;;;-142.37;100.00;59669.53;5040331;28;20353;-71
2021/05/24 07:07:51;;;;;;;2.13;1.67;;;;;;;-142.37;100.00;59669.53;5036124;28;20067;-70
2021/05/24 07:10:17;;;;;;;2.20;1.45;;;;;;;-142.37;100.00;59669.53;5048434;28;20484;-69
2021/05/24 07:12:42;;;;;;;2.75;1.33;;;;;;;-142.37;100.00;59669.53;5047543;28;20051;-69
2021/05/24 07:15:08;;;;;;;1.17;0.85;;;;;;;-142.37;100.00;59669.53;5049770;28;20449;-69
2021/05/24 07:17:33;;;;;;;1.40;1.15;;;;;;;-142.37;100.00;59669.53;5050043;28;20122;-68
2021/05/24 07:19:59;;;;;;;1.20;1.10;;;;;;;-142.37;100.00;59669.53;5037965;28;20429;-68
2021/05/24 07:22:25;;;;;;;1.10;0.90;;;;;;;-142.37;100.00;59669.53;5038135;28;20096;-66
2021/05/24 07:24:52;;;;;;;0.88;0.80;;;;;;;-142.37;100.00;59669.53;5040569;28;20027;-71
2021/05/24 07:27:18;;;;;;;0.75;0.70;;;;;;;-142.37;100.00;59669.53;5045619;28;20075;-67
2021/05/24 07:29:43;;;;;;;0.68;0.68;;;;;;;-142.37;100.00;59669.53;5047196;28;20036;-70
2021/05/24 07:32:11;;;;;;;2.78;0.60;;;;;;;-142.37;100.00;59669.53;5037534;28;20519;-68
2021/05/24 07:34:38;;;;;;;0.93;0.63;;;;;;;-142.37;100.00;59669.53;5050006;28;20060;-69
2021/05/24 07:37:03;;;;;;;0.93;0.63;;;;;;;-142.37;100.00;59669.53;5049325;28;20079;-67
2021/05/24 07:39:29;;;;;;;2.28;0.40;;;;;;;-142.37;100.00;59669.53;5051820;28;20025;-68
2021/05/24 07:41:59;;;;;;;0.63;0.63;;;;;;;-142.37;100.00;59669.53;5052103;28;20384;-67
2021/05/24 07:44:24;;;;;;;1.25;0.60;;;;;;;-142.37;100.00;59669.53;5046787;28;20112;-66
2021/05/24 07:46:49;;;;;;;0.60;0.60;;;;;;;-142.37;100.00;59669.53;5041272;28;20104;-65
2021/05/24 07:49:17;;;;;;;0.60;0.50;;;;;;;-142.37;100.00;59669.53;5035242;28;20377;-67
2021/05/24 07:51:43;;;;;;;1.38;0.80;;;;;;;-142.37;100.00;59669.53;5050201;28;20025;-68
2021/05/24 07:54:08;;;;;;;1.65;0.70;;;;;;;-142.37;100.00;59669.53;5044071;28;20487;-68
2021/05/24 07:56:33;;;;;;;3.42;1.00;;;;;;;-142.37;100.00;59669.53;5043587;28;20021;-68
2021/05/24 07:58:59;;;;;;;1.05;0.40;;;;;;;-142.37;100.00;59669.53;5046609;28;20380;-68
2021/05/24 08:01:24;;;;;;;1.77;0.70;;;;;;;-142.37;100.00;59669.53;5042289;28;20029;-68
2021/05/24 08:03:49;;;;;;;0.65;0.47;;;;;;;-142.37;100.00;59669.53;5044337;28;20055;-66
2021/05/24 08:06:14;;;;;;;0.88;0.60;;;;;;;-142.37;100.00;59669.53;5037669;28;20036;-66
2021/05/24 08:08:41;;;;;;;1.00;0.45;;;;;;;-142.37;100.00;59669.53;5050102;28;20028;-67
2021/05/24 08:11:07;;;;;;;0.50;0.40;;;;;;;-142.37;100.00;59669.53;5048881;28;20070;-70
2021/05/24 08:13:32;;;;;;;0.30;0.30;;;;;;;-142.37;100.00;59669.53;5043651;28;20026;-71
2021/05/24 08:15:57;;;;;;;0.50;0.40;;;;;;;-142.37;100.00;59669.53;5047445;28;20033;-71
2021/05/24 08:18:23;;;;;;;0.95;0.40;;;;;;;-142.37;100.00;59669.53;5047766;28;20018;-71
2021/05/24 08:20:50;;;;;;;1.23;0.40;;;;;;;-142.37;100.00;59669.53;5052913;28;20029;-71
2021/05/24 08:23:15;;;;;;;0.63;0.20;;;;;;;-142.37;100.00;59669.53;5049894;28;20052;-71
2021/05/24 08:25:41;;;;;;;0.50;0.30;;;;;;;-142.37;100.00;59669.53;5049966;28;20024;-71
2021/05/24 08:28:08;;;;;;;0.73;0.30;;;;;;;-142.37;100.00;59669.53;5040250;28;20021;-72
2021/05/24 08:30:34;;;;;;;0.40;0.20;;;;;;;-142.37;100.00;59669.53;5042413;28;20476;-70
2021/05/24 08:33:00;;;;;;;0.57;0.30;;;;;;;-142.37;100.00;59669.53;5042398;28;20120;-71
2021/05/24 08:35:26;;;;;;;1.25;0.32;;;;;;;-142.37;100.00;59669.53;5034212;28;20596;-70
2021/05/24 08:37:51;;;;;;;1.10;0.35;;;;;;;-142.37;100.00;59669.53;5049803;28;20522;-71
2021/05/24 08:40:18;;;;;;;0.68;0.32;;;;;;;-142.37;100.00;59669.53;5042127;28;20065;-70
2021/05/24 08:42:45;;;;;;;0.52;0.22;;;;;;;-142.37;100.00;59669.53;5052640;28;20025;-73
2021/05/24 08:45:11;;;;;;;1.17;0.30;;;;;;;-142.37;100.00;59669.53;5037888;28;20018;-72
2021/05/24 08:47:37;;;;;;;1.13;0.47;;;;;;;-142.37;100.00;59669.53;5037642;28;20033;-69
2021/05/24 08:50:05;;;;;;;1.92;0.20;;;;;;;-142.37;100.00;59669.53;5049724;28;20068;-71
2021/05/24 08:52:30;;;;;;;0.65;0.20;;;;;;;-142.37;100.00;59669.53;5053148;28;20108;-70
2021/05/24 08:54:56;;;;;;;0.40;0.20;;;;;;;-142.37;100.00;59669.53;5046634;28;20055;-71
2021/05/24 08:57:22;;;;;;;0.30;0.10;;;;;;;-142.37;100.00;59669.53;5048956;28;20025;-73
2021/05/24 08:59:47;;;;;;;0.30;0.20;;;;;;;-142.37;100.00;59669.53;5048596;28;20055;-70
2021/05/24 09:02:13;;;;;;;0.25;0.17;;;;;;;-142.37;100.00;59669.53;5049138;28;20032;-71
2021/05/24 09:04:47;;;;;;;0.80;0.10;;;;;;;-142.37;100.00;59669.53;5033517;28;20507;-72
2021/05/24 09:07:12;;;;;;;0.35;0.10;;;;;;;-142.37;100.00;59669.53;5031061;28;20472;-70
2021/05/24 09:09:39;;;;;;;0.15;0.10;;;;;;;-142.37;100.00;59669.53;5040605;28;20021;-71
2021/05/24 09:12:18;;;;;;;1.10;0.30;;;;;;;-142.37;100.00;59669.53;5050864;28;20025;-70
2021/05/24 09:14:54;;;;;;;1.35;0.40;;;;;;;-142.37;100.00;59669.53;5041939;28;20051;-71
2021/05/24 09:17:19;;;;;;;0.52;0.10;;;;;;;-142.37;100.00;59669.53;5053908;28;20108;-69
2021/05/24 09:19:44;;;;;;;0.40;0.10;;;;;;;-142.37;100.00;59669.53;5053250;28;20044;-72
2021/05/24 09:22:10;;;;;;;0.20;0.20;;;;;;;-142.37;100.00;59669.53;5050322;28;20492;-71
2021/05/24 09:24:38;;;;;;;0.88;0.10;;;;;;;-142.37;100.00;59669.53;5043362;28;20025;-70
2021/05/24 09:27:23;;;;;;;0.73;0.20;;;;;;;-142.37;100.00;59669.53;5033739;28;20060;-70
2021/05/24 09:29:49;;;;;;;0.52;0.15;;;;;;;-142.37;100.00;59669.53;5031859;28;20037;-70
2021/05/24 09:32:26;;;;;;;0.47;0.15;;;;;;;-142.37;100.00;59669.53;5045863;28;20072;-72
2021/05/24 09:34:53;;;;;;;0.32;0.15;;;;;;;-142.37;100.00;59669.53;5045335;28;20108;-70
2021/05/24 09:37:40;;;;;;;0.45;0.10;;;;;;;-142.37;100.00;59669.53;5033808;28;20041;-71
2021/05/24 09:40:21;;;;;;;0.80;0.30;;;;;;;-142.37;100.00;59669.53;5050325;28;20025;-72
2021/05/24 09:42:47;;;;;;;1.05;0.20;;;;;;;-142.37;100.00;59669.53;5042887;28;20060;-73
2021/05/24 09:45:17;;;;;;;0.68;0.10;;;;;;;-142.37;100.00;59669.53;5044899;28;20473;-69
2021/05/24 09:47:44;;;;;;;0.17;0.10;;;;;;;-142.37;100.00;59669.53;5038748;28;20036;-69
2021/05/24 09:50:14;;;;;;;0.85;0.38;;;;;;;-142.37;100.00;59669.53;5049101;28;20032;-71
2021/05/24 09:52:42;;;;;;;0.82;0.25;;;;;;;-142.37;100.00;59669.53;5038866;28;20032;-72
2021/05/24 09:55:16;;;;;;;0.60;0.28;;;;;;;-142.37;100.00;59669.53;5051137;28;20021;-69
2021/05/24 09:58:01;;;;;;;0.25;0.10;;;;;;;-142.37;100.00;59669.53;5044288;28;20029;-70
2021/05/24 10:00:52;;;;;;;1.52;0.22;;;;;;;-142.37;100.00;59669.53;5049330;28;20040;-69
2021/05/24 10:03:22;;;;;;;0.82;0.10;;;;;;;-142.37;100.00;59669.53;5045251;28;20374;-71
2021/05/24 10:05:50;;;;;;;0.55;0.10;;;;;;;-142.37;100.00;59669.53;5044097;28;20518;-70
2021/05/24 10:08:15;;;;;;;0.00;0.00;;;;;;;-142.37;100.00;59669.53;5051214;28;20519;-71
2021/05/24 10:10:42;;;;;;;1.02;0.17;;;;;;;-142.37;100.00;59669.53;5049034;28;20104;-69
2021/05/24 10:13:11;;;;;;;0.77;0.10;;;;;;;-142.37;100.00;59669.53;5053016;28;20024;-71
2021/05/24 10:15:39;;;;;;;0.35;0.10;;;;;;;-142.37;100.00;59669.53;5052990;28;20100;-70
2021/05/24 10:18:05;;;;;;;1.13;0.30;;;;;;;-142.37;100.00;59669.53;5052904;28;20060;-70
2021/05/24 10:20:32;;;;;;;0.10;0.10;;;;;;;-142.37;100.00;59669.53;5048359;23;20037;-69
2021/05/24 10:22:58;;;;;;;0.40;0.20;;;;;;;-142.37;100.00;59669.53;5023425;28;20037;-71
2021/05/24 10:25:24;;;;;;;0.38;0.10;;;;;;;-142.37;100.00;59669.53;5023088;28;20382;-71
2021/05/24 10:27:51;;;;;;;1.23;0.30;;;;;;;-142.37;100.00;59669.53;5023948;28;20128;-70
2021/05/24 10:30:17;;;;;;;0.73;0.17;;;;;;;-142.37;100.00;59669.53;5019004;28;20034;-71
2021/05/24 10:32:56;;;;;;;0.38;0.20;;;;;;;-142.37;100.00;59669.53;5014089;28;20056;-69
2021/05/24 10:35:32;;;;;;;0.20;0.13;;;;;;;-142.37;100.00;59669.53;5013084;28;20033;-69
2021/05/24 10:37:58;;;;;;;1.02;0.20;;;;;;;-142.37;100.00;59669.53;5014157;28;20033;-71
2021/05/24 10:40:24;;;;;;;0.32;0.10;;;;;;;-142.37;100.00;59669.53;5016836;28;20036;-71
2021/05/24 10:42:49;;;;;;;0.75;0.20;;;;;;;-142.37;100.00;59669.53;5012986;28;20108;-71
2021/05/24 10:45:20;;;;;;;1.42;0.30;;;;;;;-142.37;100.00;59669.53;5014969;28;20018;-69
2021/05/24 10:48:00;;;;;;;0.43;0.20;;;;;;;-142.37;100.00;59669.53;5012937;28;20444;-71
2021/05/24 10:50:29;;;;;;;0.88;0.20;;;;;;;-142.37;100.00;59669.53;5028049;28;20067;-69
2021/05/24 10:52:57;;;;;;;0.63;0.17;;;;;;;-142.37;100.00;59669.53;5032461;28;20437;-71
2021/05/24 10:55:25;;;;;;;0.47;0.13;;;;;;;-142.37;100.00;59669.53;5032514;28;20029;-70
2021/05/24 10:57:56;;;;;;;0.75;0.20;;;;;;;-142.37;100.00;59669.53;5031221;28;20124;-71
2021/05/24 11:00:21;;;;;;;0.40;0.05;;;;;;;-142.37;100.00;59669.53;5032526;28;20036;-70
2021/05/24 11:02:55;;;;;;;0.43;0.43;;;;;;;-142.37;100.00;59669.53;5032302;28;20021;-70
2021/05/24 11:05:29;;;;;;;0.15;0.10;;;;;;;-142.37;100.00;59669.53;5032444;28;20032;-69
2021/05/24 11:08:07;;;;;;;1.55;0.20;;;;;;;-142.37;100.00;59669.53;5032034;28;20037;-69